sensor_id;sensor_type;location;lat;lon;timestamp;P1;durP1;ratioP1;P2;durP2;ratioP2
16954;SDS011;8594;52.052;8.354;2023-06-10T00:00:02;11.07;;;6.47;;
16954;SDS011;8594;52.052;8.354;2023-06-10T00:02:32;9.73;;;6.13;;
16954;SDS011;8594;52.052;8.354;2023-06-10T00:05:00;11.60;;;6.97;;
16954;SDS011;8594;52.052;8.354;2023-06-10T00:07:27;13.83;;;6.73;;
16954;SDS011;8594;52.052;8.354;2023-06-10T00:09:54;14.10;;;6.67;;
16954;SDS011;8594;52.052;8.354;2023-06-10T00:12:22;10.53;;;6.30;;
16954;SDS011;8594;52.052;8.354;2023-06-10T00:14:49;13.83;;;6.40;;
16954;SDS011;8594;52.052;8.354;2023-06-10T00:17:16;14.33;;;6.77;;
16954;SDS011;8594;52.052;8.354;2023-06-10T00:19:43;8.53;;;5.73;;
16954;SDS011;8594;52.052;8.354;2023-06-10T00:22:13;13.80;;;6.67;;
16954;SDS011;8594;52.052;8.354;2023-06-10T00:24:40;13.27;;;6.73;;
16954;SDS011;8594;52.052;8.354;2023-06-10T00:27:07;15.10;;;6.23;;
16954;SDS011;8594;52.052;8.354;2023-06-10T00:29:34;11.40;;;6.40;;
16954;SDS011;8594;52.052;8.354;2023-06-10T00:32:01;13.97;;;6.90;;
16954;SDS011;8594;52.052;8.354;2023-06-10T00:34:29;12.20;;;5.93;;
16954;SDS011;8594;52.052;8.354;2023-06-10T00:36:57;12.40;;;6.50;;
16954;SDS011;8594;52.052;8.354;2023-06-10T00:39:25;15.63;;;6.63;;
16954;SDS011;8594;52.052;8.354;2023-06-10T00:41:52;13.83;;;6.80;;
16954;SDS011;8594;52.052;8.354;2023-06-10T00:44:18;15.87;;;6.77;;
16954;SDS011;8594;52.052;8.354;2023-06-10T00:46:45;9.37;;;6.10;;
16954;SDS011;8594;52.052;8.354;2023-06-10T00:49:12;11.73;;;6.60;;
16954;SDS011;8594;52.052;8.354;2023-06-10T00:51:39;14.70;;;7.53;;
16954;SDS011;8594;52.052;8.354;2023-06-10T00:54:06;11.93;;;6.47;;
16954;SDS011;8594;52.052;8.354;2023-06-10T00:56:35;13.17;;;6.73;;
16954;SDS011;8594;52.052;8.354;2023-06-10T00:59:02;15.43;;;6.90;;
16954;SDS011;8594;52.052;8.354;2023-06-10T01:01:29;10.80;;;6.43;;
16954;SDS011;8594;52.052;8.354;2023-06-10T01:03:57;11.27;;;6.47;;
16954;SDS011;8594;52.052;8.354;2023-06-10T01:06:25;11.37;;;6.63;;
16954;SDS011;8594;52.052;8.354;2023-06-10T01:09:04;11.13;;;6.43;;
16954;SDS011;8594;52.052;8.354;2023-06-10T01:11:47;14.17;;;6.70;;
16954;SDS011;8594;52.052;8.354;2023-06-10T01:14:20;11.53;;;6.60;;
16954;SDS011;8594;52.052;8.354;2023-06-10T01:16:49;12.03;;;6.83;;
16954;SDS011;8594;52.052;8.354;2023-06-10T01:19:18;13.83;;;6.83;;
16954;SDS011;8594;52.052;8.354;2023-06-10T01:21:46;16.90;;;6.80;;
16954;SDS011;8594;52.052;8.354;2023-06-10T01:24:15;13.20;;;6.77;;
16954;SDS011;8594;52.052;8.354;2023-06-10T01:26:46;9.73;;;6.30;;
16954;SDS011;8594;52.052;8.354;2023-06-10T01:29:26;12.67;;;6.87;;
16954;SDS011;8594;52.052;8.354;2023-06-10T01:32:06;11.63;;;6.57;;
16954;SDS011;8594;52.052;8.354;2023-06-10T01:34:41;11.87;;;6.70;;
16954;SDS011;8594;52.052;8.354;2023-06-10T01:37:12;11.10;;;7.13;;
16954;SDS011;8594;52.052;8.354;2023-06-10T01:39:43;14.67;;;6.47;;
16954;SDS011;8594;52.052;8.354;2023-06-10T01:42:12;12.03;;;7.10;;
16954;SDS011;8594;52.052;8.354;2023-06-10T01:44:40;17.23;;;7.37;;
16954;SDS011;8594;52.052;8.354;2023-06-10T01:47:07;14.43;;;7.23;;
16954;SDS011;8594;52.052;8.354;2023-06-10T01:49:34;19.00;;;6.67;;
16954;SDS011;8594;52.052;8.354;2023-06-10T01:52:01;11.27;;;6.30;;
16954;SDS011;8594;52.052;8.354;2023-06-10T01:54:30;11.97;;;6.13;;
16954;SDS011;8594;52.052;8.354;2023-06-10T01:56:56;16.50;;;6.70;;
16954;SDS011;8594;52.052;8.354;2023-06-10T01:59:23;11.40;;;6.50;;
16954;SDS011;8594;52.052;8.354;2023-06-10T02:01:50;11.67;;;6.03;;
16954;SDS011;8594;52.052;8.354;2023-06-10T02:04:17;13.27;;;6.57;;
16954;SDS011;8594;52.052;8.354;2023-06-10T02:06:44;11.40;;;6.60;;
16954;SDS011;8594;52.052;8.354;2023-06-10T02:09:11;17.87;;;6.90;;
16954;SDS011;8594;52.052;8.354;2023-06-10T02:11:39;9.23;;;5.70;;
16954;SDS011;8594;52.052;8.354;2023-06-10T02:14:06;13.17;;;6.13;;
16954;SDS011;8594;52.052;8.354;2023-06-10T02:16:32;11.50;;;6.13;;
16954;SDS011;8594;52.052;8.354;2023-06-10T02:18:59;14.70;;;6.90;;
16954;SDS011;8594;52.052;8.354;2023-06-10T02:21:28;12.40;;;5.90;;
16954;SDS011;8594;52.052;8.354;2023-06-10T02:23:55;11.50;;;5.63;;
16954;SDS011;8594;52.052;8.354;2023-06-10T02:26:21;13.73;;;6.30;;
16954;SDS011;8594;52.052;8.354;2023-06-10T02:28:52;12.47;;;6.03;;
16954;SDS011;8594;52.052;8.354;2023-06-10T02:31:19;13.87;;;6.60;;
16954;SDS011;8594;52.052;8.354;2023-06-10T02:33:46;10.03;;;5.67;;
16954;SDS011;8594;52.052;8.354;2023-06-10T02:36:12;12.00;;;6.57;;
16954;SDS011;8594;52.052;8.354;2023-06-10T02:38:40;14.20;;;6.37;;
16954;SDS011;8594;52.052;8.354;2023-06-10T02:41:07;10.70;;;6.10;;
16954;SDS011;8594;52.052;8.354;2023-06-10T02:43:34;12.70;;;6.00;;
16954;SDS011;8594;52.052;8.354;2023-06-10T02:46:02;12.50;;;6.27;;
16954;SDS011;8594;52.052;8.354;2023-06-10T02:48:29;13.30;;;6.13;;
16954;SDS011;8594;52.052;8.354;2023-06-10T02:50:55;14.93;;;5.90;;
16954;SDS011;8594;52.052;8.354;2023-06-10T02:53:22;14.40;;;6.50;;
16954;SDS011;8594;52.052;8.354;2023-06-10T02:55:49;12.10;;;6.30;;
16954;SDS011;8594;52.052;8.354;2023-06-10T02:58:16;15.60;;;6.70;;
16954;SDS011;8594;52.052;8.354;2023-06-10T03:00:42;9.80;;;6.07;;
16954;SDS011;8594;52.052;8.354;2023-06-10T03:03:11;12.67;;;6.43;;
16954;SDS011;8594;52.052;8.354;2023-06-10T03:05:38;14.73;;;6.17;;
16954;SDS011;8594;52.052;8.354;2023-06-10T03:08:05;12.10;;;6.00;;
16954;SDS011;8594;52.052;8.354;2023-06-10T03:10:31;9.77;;;5.63;;
16954;SDS011;8594;52.052;8.354;2023-06-10T03:12:58;14.23;;;6.40;;
16954;SDS011;8594;52.052;8.354;2023-06-10T03:15:25;12.17;;;5.83;;
16954;SDS011;8594;52.052;8.354;2023-06-10T03:17:53;13.93;;;6.53;;
16954;SDS011;8594;52.052;8.354;2023-06-10T03:20:22;16.13;;;6.37;;
16954;SDS011;8594;52.052;8.354;2023-06-10T03:22:50;11.20;;;5.73;;
16954;SDS011;8594;52.052;8.354;2023-06-10T03:25:17;8.83;;;5.60;;
16954;SDS011;8594;52.052;8.354;2023-06-10T03:27:46;11.83;;;5.70;;
16954;SDS011;8594;52.052;8.354;2023-06-10T03:30:13;13.43;;;6.00;;
16954;SDS011;8594;52.052;8.354;2023-06-10T03:32:40;11.00;;;5.67;;
16954;SDS011;8594;52.052;8.354;2023-06-10T03:35:07;10.20;;;5.90;;
16954;SDS011;8594;52.052;8.354;2023-06-10T03:37:36;11.13;;;5.57;;
16954;SDS011;8594;52.052;8.354;2023-06-10T03:40:03;10.50;;;6.37;;
16954;SDS011;8594;52.052;8.354;2023-06-10T03:42:32;9.87;;;5.73;;
16954;SDS011;8594;52.052;8.354;2023-06-10T03:44:59;10.50;;;5.40;;
16954;SDS011;8594;52.052;8.354;2023-06-10T03:47:26;10.13;;;5.60;;
16954;SDS011;8594;52.052;8.354;2023-06-10T03:49:52;14.40;;;5.70;;
16954;SDS011;8594;52.052;8.354;2023-06-10T03:52:19;10.37;;;5.53;;
16954;SDS011;8594;52.052;8.354;2023-06-10T03:54:47;15.30;;;6.07;;
16954;SDS011;8594;52.052;8.354;2023-06-10T03:57:14;10.33;;;5.40;;
16954;SDS011;8594;52.052;8.354;2023-06-10T03:59:41;10.27;;;5.60;;
16954;SDS011;8594;52.052;8.354;2023-06-10T04:02:07;9.70;;;4.90;;
16954;SDS011;8594;52.052;8.354;2023-06-10T04:04:34;11.67;;;5.43;;
16954;SDS011;8594;52.052;8.354;2023-06-10T04:07:02;12.93;;;5.13;;
16954;SDS011;8594;52.052;8.354;2023-06-10T04:09:30;12.13;;;4.83;;
16954;SDS011;8594;52.052;8.354;2023-06-10T04:11:58;10.60;;;4.73;;
16954;SDS011;8594;52.052;8.354;2023-06-10T04:14:25;8.93;;;4.70;;
16954;SDS011;8594;52.052;8.354;2023-06-10T04:16:52;8.83;;;4.70;;
16954;SDS011;8594;52.052;8.354;2023-06-10T04:19:19;13.00;;;5.00;;
16954;SDS011;8594;52.052;8.354;2023-06-10T04:21:46;9.97;;;4.50;;
16954;SDS011;8594;52.052;8.354;2023-06-10T04:24:13;7.33;;;4.60;;
16954;SDS011;8594;52.052;8.354;2023-06-10T04:26:40;8.17;;;4.57;;
16954;SDS011;8594;52.052;8.354;2023-06-10T04:29:08;10.87;;;5.10;;
16954;SDS011;8594;52.052;8.354;2023-06-10T04:31:34;11.07;;;4.93;;
16954;SDS011;8594;52.052;8.354;2023-06-10T04:34:01;7.63;;;4.40;;
16954;SDS011;8594;52.052;8.354;2023-06-10T04:36:28;9.53;;;4.53;;
16954;SDS011;8594;52.052;8.354;2023-06-10T04:38:55;7.30;;;4.50;;
16954;SDS011;8594;52.052;8.354;2023-06-10T04:41:22;9.70;;;4.50;;
16954;SDS011;8594;52.052;8.354;2023-06-10T04:43:49;10.00;;;4.73;;
16954;SDS011;8594;52.052;8.354;2023-06-10T04:46:17;11.00;;;5.00;;
16954;SDS011;8594;52.052;8.354;2023-06-10T04:48:44;12.23;;;4.53;;
16954;SDS011;8594;52.052;8.354;2023-06-10T04:51:12;11.07;;;4.37;;
16954;SDS011;8594;52.052;8.354;2023-06-10T04:53:39;10.00;;;4.87;;
16954;SDS011;8594;52.052;8.354;2023-06-10T04:56:05;9.27;;;4.60;;
16954;SDS011;8594;52.052;8.354;2023-06-10T04:58:33;9.90;;;4.90;;
16954;SDS011;8594;52.052;8.354;2023-06-10T05:01:00;7.77;;;4.50;;
16954;SDS011;8594;52.052;8.354;2023-06-10T05:03:29;10.93;;;4.37;;
16954;SDS011;8594;52.052;8.354;2023-06-10T05:05:56;10.50;;;5.07;;
16954;SDS011;8594;52.052;8.354;2023-06-10T05:08:22;9.50;;;4.70;;
16954;SDS011;8594;52.052;8.354;2023-06-10T05:10:49;9.80;;;4.57;;
16954;SDS011;8594;52.052;8.354;2023-06-10T05:13:16;9.23;;;4.70;;
16954;SDS011;8594;52.052;8.354;2023-06-10T05:15:43;7.77;;;4.40;;
16954;SDS011;8594;52.052;8.354;2023-06-10T05:18:11;10.27;;;4.80;;
16954;SDS011;8594;52.052;8.354;2023-06-10T05:20:39;6.77;;;4.63;;
16954;SDS011;8594;52.052;8.354;2023-06-10T05:23:06;7.87;;;4.30;;
16954;SDS011;8594;52.052;8.354;2023-06-10T05:25:33;8.37;;;4.10;;
16954;SDS011;8594;52.052;8.354;2023-06-10T05:28:01;9.63;;;4.93;;
16954;SDS011;8594;52.052;8.354;2023-06-10T05:30:27;8.43;;;3.80;;
16954;SDS011;8594;52.052;8.354;2023-06-10T05:32:54;6.37;;;3.90;;
16954;SDS011;8594;52.052;8.354;2023-06-10T05:35:21;9.27;;;4.20;;
16954;SDS011;8594;52.052;8.354;2023-06-10T05:37:50;11.57;;;4.70;;
16954;SDS011;8594;52.052;8.354;2023-06-10T05:40:16;7.77;;;4.33;;
16954;SDS011;8594;52.052;8.354;2023-06-10T05:42:43;7.93;;;4.33;;
16954;SDS011;8594;52.052;8.354;2023-06-10T05:45:10;11.83;;;4.60;;
16954;SDS011;8594;52.052;8.354;2023-06-10T05:47:37;7.93;;;4.10;;
16954;SDS011;8594;52.052;8.354;2023-06-10T05:50:04;10.47;;;4.47;;
16954;SDS011;8594;52.052;8.354;2023-06-10T05:52:33;11.30;;;4.63;;
16954;SDS011;8594;52.052;8.354;2023-06-10T05:55:01;6.67;;;3.90;;
16954;SDS011;8594;52.052;8.354;2023-06-10T05:57:29;8.80;;;4.50;;
16954;SDS011;8594;52.052;8.354;2023-06-10T05:59:56;8.50;;;4.37;;
16954;SDS011;8594;52.052;8.354;2023-06-10T06:02:24;10.50;;;4.53;;
16954;SDS011;8594;52.052;8.354;2023-06-10T06:04:51;9.10;;;4.80;;
16954;SDS011;8594;52.052;8.354;2023-06-10T06:07:18;9.37;;;4.50;;
16954;SDS011;8594;52.052;8.354;2023-06-10T06:09:45;12.40;;;4.60;;
16954;SDS011;8594;52.052;8.354;2023-06-10T06:12:14;14.13;;;4.90;;
16954;SDS011;8594;52.052;8.354;2023-06-10T06:14:40;9.60;;;4.10;;
16954;SDS011;8594;52.052;8.354;2023-06-10T06:17:07;7.97;;;4.30;;
16954;SDS011;8594;52.052;8.354;2023-06-10T06:19:34;6.67;;;4.00;;
16954;SDS011;8594;52.052;8.354;2023-06-10T06:22:01;8.47;;;4.07;;
16954;SDS011;8594;52.052;8.354;2023-06-10T06:24:27;12.37;;;4.40;;
16954;SDS011;8594;52.052;8.354;2023-06-10T06:26:54;10.17;;;4.53;;
16954;SDS011;8594;52.052;8.354;2023-06-10T06:29:22;7.80;;;4.13;;
16954;SDS011;8594;52.052;8.354;2023-06-10T06:31:49;10.73;;;4.40;;
16954;SDS011;8594;52.052;8.354;2023-06-10T06:34:16;8.67;;;4.10;;
16954;SDS011;8594;52.052;8.354;2023-06-10T06:36:42;7.67;;;4.57;;
16954;SDS011;8594;52.052;8.354;2023-06-10T06:39:09;7.63;;;4.27;;
16954;SDS011;8594;52.052;8.354;2023-06-10T06:41:36;9.60;;;4.40;;
16954;SDS011;8594;52.052;8.354;2023-06-10T06:44:03;10.87;;;4.30;;
16954;SDS011;8594;52.052;8.354;2023-06-10T06:46:31;6.37;;;4.20;;
16954;SDS011;8594;52.052;8.354;2023-06-10T06:48:58;8.10;;;3.83;;
16954;SDS011;8594;52.052;8.354;2023-06-10T06:51:25;9.37;;;4.57;;
16954;SDS011;8594;52.052;8.354;2023-06-10T06:53:51;11.30;;;4.80;;
16954;SDS011;8594;52.052;8.354;2023-06-10T06:56:21;6.83;;;4.03;;
16954;SDS011;8594;52.052;8.354;2023-06-10T06:58:48;10.93;;;4.67;;
16954;SDS011;8594;52.052;8.354;2023-06-10T07:01:15;7.00;;;3.90;;
16954;SDS011;8594;52.052;8.354;2023-06-10T07:03:43;9.60;;;4.23;;
16954;SDS011;8594;52.052;8.354;2023-06-10T07:06:10;15.07;;;5.20;;
16954;SDS011;8594;52.052;8.354;2023-06-10T07:08:38;7.57;;;3.77;;
16954;SDS011;8594;52.052;8.354;2023-06-10T07:11:05;8.70;;;4.13;;
16954;SDS011;8594;52.052;8.354;2023-06-10T07:13:32;5.17;;;3.70;;
16954;SDS011;8594;52.052;8.354;2023-06-10T07:15:59;8.23;;;3.80;;
16954;SDS011;8594;52.052;8.354;2023-06-10T07:18:26;6.90;;;3.80;;
16954;SDS011;8594;52.052;8.354;2023-06-10T07:20:54;8.70;;;4.20;;
16954;SDS011;8594;52.052;8.354;2023-06-10T07:23:21;9.33;;;4.37;;
16954;SDS011;8594;52.052;8.354;2023-06-10T07:25:47;12.80;;;4.13;;
16954;SDS011;8594;52.052;8.354;2023-06-10T07:28:14;8.90;;;4.70;;
16954;SDS011;8594;52.052;8.354;2023-06-10T07:30:41;7.90;;;4.20;;
16954;SDS011;8594;52.052;8.354;2023-06-10T07:33:08;14.60;;;5.30;;
16954;SDS011;8594;52.052;8.354;2023-06-10T07:35:36;7.23;;;3.90;;
16954;SDS011;8594;52.052;8.354;2023-06-10T07:38:04;8.83;;;5.03;;
16954;SDS011;8594;52.052;8.354;2023-06-10T07:40:31;6.43;;;3.90;;
16954;SDS011;8594;52.052;8.354;2023-06-10T07:42:57;9.80;;;4.67;;
16954;SDS011;8594;52.052;8.354;2023-06-10T07:45:24;9.93;;;4.57;;
16954;SDS011;8594;52.052;8.354;2023-06-10T07:47:51;8.97;;;4.23;;
16954;SDS011;8594;52.052;8.354;2023-06-10T07:50:18;11.23;;;4.57;;
16954;SDS011;8594;52.052;8.354;2023-06-10T07:52:45;10.10;;;4.60;;
16954;SDS011;8594;52.052;8.354;2023-06-10T07:55:13;9.37;;;4.50;;
16954;SDS011;8594;52.052;8.354;2023-06-10T07:57:40;10.23;;;4.23;;
16954;SDS011;8594;52.052;8.354;2023-06-10T08:00:07;6.73;;;4.40;;
16954;SDS011;8594;52.052;8.354;2023-06-10T08:02:35;8.73;;;4.30;;
16954;SDS011;8594;52.052;8.354;2023-06-10T08:05:02;11.07;;;4.37;;
16954;SDS011;8594;52.052;8.354;2023-06-10T08:07:30;6.87;;;4.23;;
16954;SDS011;8594;52.052;8.354;2023-06-10T08:09:57;9.60;;;4.40;;
16954;SDS011;8594;52.052;8.354;2023-06-10T08:12:27;7.57;;;4.40;;
16954;SDS011;8594;52.052;8.354;2023-06-10T08:14:55;10.67;;;4.47;;
16954;SDS011;8594;52.052;8.354;2023-06-10T08:17:22;8.43;;;4.77;;
16954;SDS011;8594;52.052;8.354;2023-06-10T08:19:49;9.90;;;4.87;;
16954;SDS011;8594;52.052;8.354;2023-06-10T08:22:16;6.27;;;4.00;;
16954;SDS011;8594;52.052;8.354;2023-06-10T08:24:43;12.63;;;4.73;;
16954;SDS011;8594;52.052;8.354;2023-06-10T08:27:10;9.60;;;4.83;;
16954;SDS011;8594;52.052;8.354;2023-06-10T08:29:39;6.23;;;4.20;;
16954;SDS011;8594;52.052;8.354;2023-06-10T08:32:06;7.93;;;4.30;;
16954;SDS011;8594;52.052;8.354;2023-06-10T08:34:33;8.30;;;4.60;;
16954;SDS011;8594;52.052;8.354;2023-06-10T08:37:01;11.37;;;4.77;;
16954;SDS011;8594;52.052;8.354;2023-06-10T08:39:28;15.67;;;5.13;;
16954;SDS011;8594;52.052;8.354;2023-06-10T08:42:00;10.43;;;4.60;;
16954;SDS011;8594;52.052;8.354;2023-06-10T08:44:44;8.70;;;4.70;;
16954;SDS011;8594;52.052;8.354;2023-06-10T08:47:13;11.70;;;4.47;;
16954;SDS011;8594;52.052;8.354;2023-06-10T08:49:43;9.50;;;4.63;;
16954;SDS011;8594;52.052;8.354;2023-06-10T08:52:14;12.43;;;4.70;;
16954;SDS011;8594;52.052;8.354;2023-06-10T08:54:43;10.73;;;4.93;;
16954;SDS011;8594;52.052;8.354;2023-06-10T08:57:18;9.30;;;4.33;;
16954;SDS011;8594;52.052;8.354;2023-06-10T08:59:48;10.70;;;4.93;;
16954;SDS011;8594;52.052;8.354;2023-06-10T09:02:15;11.33;;;4.60;;
16954;SDS011;8594;52.052;8.354;2023-06-10T09:04:44;7.40;;;4.57;;
16954;SDS011;8594;52.052;8.354;2023-06-10T09:07:13;8.70;;;4.30;;
16954;SDS011;8594;52.052;8.354;2023-06-10T09:09:42;8.33;;;4.37;;
16954;SDS011;8594;52.052;8.354;2023-06-10T09:12:10;8.63;;;4.47;;
16954;SDS011;8594;52.052;8.354;2023-06-10T09:14:38;10.57;;;4.50;;
16954;SDS011;8594;52.052;8.354;2023-06-10T09:17:06;9.43;;;4.43;;
16954;SDS011;8594;52.052;8.354;2023-06-10T09:19:33;7.27;;;4.33;;
16954;SDS011;8594;52.052;8.354;2023-06-10T09:22:04;9.77;;;4.10;;
16954;SDS011;8594;52.052;8.354;2023-06-10T09:24:31;9.60;;;3.93;;
16954;SDS011;8594;52.052;8.354;2023-06-10T09:27:02;8.53;;;5.00;;
16954;SDS011;8594;52.052;8.354;2023-06-10T09:29:31;9.37;;;5.20;;
16954;SDS011;8594;52.052;8.354;2023-06-10T09:31:59;10.47;;;4.50;;
16954;SDS011;8594;52.052;8.354;2023-06-10T09:34:28;12.90;;;5.17;;
16954;SDS011;8594;52.052;8.354;2023-06-10T09:36:55;10.87;;;5.60;;
16954;SDS011;8594;52.052;8.354;2023-06-10T09:39:22;11.07;;;4.80;;
16954;SDS011;8594;52.052;8.354;2023-06-10T09:41:49;10.30;;;4.60;;
16954;SDS011;8594;52.052;8.354;2023-06-10T09:44:16;8.67;;;4.93;;
16954;SDS011;8594;52.052;8.354;2023-06-10T09:46:47;9.60;;;4.83;;
16954;SDS011;8594;52.052;8.354;2023-06-10T09:49:16;7.77;;;4.50;;
16954;SDS011;8594;52.052;8.354;2023-06-10T09:51:54;6.90;;;4.47;;
16954;SDS011;8594;52.052;8.354;2023-06-10T09:54:31;9.93;;;4.67;;
16954;SDS011;8594;52.052;8.354;2023-06-10T09:57:00;10.53;;;4.97;;
16954;SDS011;8594;52.052;8.354;2023-06-10T09:59:41;9.83;;;5.40;;
16954;SDS011;8594;52.052;8.354;2023-06-10T10:02:15;9.37;;;4.70;;
16954;SDS011;8594;52.052;8.354;2023-06-10T10:04:51;11.73;;;5.30;;
16954;SDS011;8594;52.052;8.354;2023-06-10T10:07:41;8.50;;;4.60;;
16954;SDS011;8594;52.052;8.354;2023-06-10T10:10:09;8.97;;;5.07;;
16954;SDS011;8594;52.052;8.354;2023-06-10T10:12:37;8.50;;;4.30;;
16954;SDS011;8594;52.052;8.354;2023-06-10T10:15:05;7.33;;;4.30;;
16954;SDS011;8594;52.052;8.354;2023-06-10T10:17:34;8.13;;;5.20;;
16954;SDS011;8594;52.052;8.354;2023-06-10T10:20:06;9.43;;;4.90;;
16954;SDS011;8594;52.052;8.354;2023-06-10T10:22:38;8.40;;;5.03;;
16954;SDS011;8594;52.052;8.354;2023-06-10T10:25:10;13.03;;;4.80;;
16954;SDS011;8594;52.052;8.354;2023-06-10T10:27:40;12.37;;;5.37;;
16954;SDS011;8594;52.052;8.354;2023-06-10T10:30:17;7.40;;;4.90;;
16954;SDS011;8594;52.052;8.354;2023-06-10T10:32:50;20.33;;;6.23;;
16954;SDS011;8594;52.052;8.354;2023-06-10T10:35:24;8.10;;;5.00;;
16954;SDS011;8594;52.052;8.354;2023-06-10T10:37:52;11.20;;;5.13;;
16954;SDS011;8594;52.052;8.354;2023-06-10T10:40:22;10.53;;;5.43;;
16954;SDS011;8594;52.052;8.354;2023-06-10T10:42:51;10.60;;;5.07;;
16954;SDS011;8594;52.052;8.354;2023-06-10T10:45:21;12.87;;;7.23;;
16954;SDS011;8594;52.052;8.354;2023-06-10T10:47:51;8.90;;;4.90;;
16954;SDS011;8594;52.052;8.354;2023-06-10T10:50:20;39.13;;;13.13;;
16954;SDS011;8594;52.052;8.354;2023-06-10T10:52:52;60.67;;;21.77;;
16954;SDS011;8594;52.052;8.354;2023-06-10T10:55:22;37.17;;;21.57;;
16954;SDS011;8594;52.052;8.354;2023-06-10T10:57:54;14.53;;;7.63;;
16954;SDS011;8594;52.052;8.354;2023-06-10T11:00:29;9.40;;;5.40;;
16954;SDS011;8594;52.052;8.354;2023-06-10T11:02:58;14.00;;;6.70;;
16954;SDS011;8594;52.052;8.354;2023-06-10T11:05:31;10.07;;;5.67;;
16954;SDS011;8594;52.052;8.354;2023-06-10T11:08:04;9.47;;;5.37;;
16954;SDS011;8594;52.052;8.354;2023-06-10T11:10:34;14.00;;;5.63;;
16954;SDS011;8594;52.052;8.354;2023-06-10T11:13:06;8.57;;;4.70;;
16954;SDS011;8594;52.052;8.354;2023-06-10T11:15:43;10.23;;;5.63;;
16954;SDS011;8594;52.052;8.354;2023-06-10T11:18:14;8.40;;;4.63;;
16954;SDS011;8594;52.052;8.354;2023-06-10T11:20:52;6.93;;;4.63;;
16954;SDS011;8594;52.052;8.354;2023-06-10T11:23:25;9.30;;;4.60;;
16954;SDS011;8594;52.052;8.354;2023-06-10T11:26:19;6.83;;;4.83;;
16954;SDS011;8594;52.052;8.354;2023-06-10T11:29:00;10.93;;;5.33;;
16954;SDS011;8594;52.052;8.354;2023-06-10T11:31:44;10.83;;;5.13;;
16954;SDS011;8594;52.052;8.354;2023-06-10T11:34:15;11.37;;;5.50;;
16954;SDS011;8594;52.052;8.354;2023-06-10T11:36:49;13.20;;;6.00;;
16954;SDS011;8594;52.052;8.354;2023-06-10T11:39:19;11.73;;;5.70;;
16954;SDS011;8594;52.052;8.354;2023-06-10T11:41:50;8.87;;;5.07;;
16954;SDS011;8594;52.052;8.354;2023-06-10T11:44:18;7.23;;;4.80;;
16954;SDS011;8594;52.052;8.354;2023-06-10T11:46:45;10.83;;;5.37;;
16954;SDS011;8594;52.052;8.354;2023-06-10T11:49:14;9.30;;;4.93;;
16954;SDS011;8594;52.052;8.354;2023-06-10T11:51:41;11.23;;;5.40;;
16954;SDS011;8594;52.052;8.354;2023-06-10T11:54:14;7.63;;;5.03;;
16954;SDS011;8594;52.052;8.354;2023-06-10T11:56:42;7.77;;;4.83;;
16954;SDS011;8594;52.052;8.354;2023-06-10T11:59:10;7.77;;;4.90;;
16954;SDS011;8594;52.052;8.354;2023-06-10T12:01:37;8.30;;;4.90;;
16954;SDS011;8594;52.052;8.354;2023-06-10T12:04:09;10.53;;;5.43;;
16954;SDS011;8594;52.052;8.354;2023-06-10T12:06:38;12.03;;;5.23;;
16954;SDS011;8594;52.052;8.354;2023-06-10T12:09:13;8.80;;;5.00;;
16954;SDS011;8594;52.052;8.354;2023-06-10T12:11:42;7.33;;;4.77;;
16954;SDS011;8594;52.052;8.354;2023-06-10T12:14:11;9.73;;;5.37;;
16954;SDS011;8594;52.052;8.354;2023-06-10T12:16:38;9.40;;;5.03;;
16954;SDS011;8594;52.052;8.354;2023-06-10T12:19:05;8.00;;;5.10;;
16954;SDS011;8594;52.052;8.354;2023-06-10T12:21:33;7.37;;;4.73;;
16954;SDS011;8594;52.052;8.354;2023-06-10T12:24:05;8.27;;;4.67;;
16954;SDS011;8594;52.052;8.354;2023-06-10T12:26:35;7.97;;;5.07;;
16954;SDS011;8594;52.052;8.354;2023-06-10T12:29:21;9.00;;;4.83;;
16954;SDS011;8594;52.052;8.354;2023-06-10T12:31:57;9.87;;;5.20;;
16954;SDS011;8594;52.052;8.354;2023-06-10T12:34:37;8.30;;;5.20;;
16954;SDS011;8594;52.052;8.354;2023-06-10T12:37:06;9.80;;;5.53;;
16954;SDS011;8594;52.052;8.354;2023-06-10T12:39:39;9.47;;;4.53;;
16954;SDS011;8594;52.052;8.354;2023-06-10T12:42:08;13.00;;;5.40;;
16954;SDS011;8594;52.052;8.354;2023-06-10T12:44:38;9.87;;;5.20;;
16954;SDS011;8594;52.052;8.354;2023-06-10T12:47:07;10.13;;;4.83;;
16954;SDS011;8594;52.052;8.354;2023-06-10T12:49:35;9.07;;;4.77;;
16954;SDS011;8594;52.052;8.354;2023-06-10T12:52:03;8.77;;;4.70;;
16954;SDS011;8594;52.052;8.354;2023-06-10T12:54:31;9.43;;;5.13;;
16954;SDS011;8594;52.052;8.354;2023-06-10T12:56:58;6.70;;;4.70;;
16954;SDS011;8594;52.052;8.354;2023-06-10T12:59:25;7.13;;;4.50;;
16954;SDS011;8594;52.052;8.354;2023-06-10T13:01:54;5.70;;;4.40;;
16954;SDS011;8594;52.052;8.354;2023-06-10T13:04:21;7.77;;;4.90;;
16954;SDS011;8594;52.052;8.354;2023-06-10T13:06:48;9.77;;;4.77;;
16954;SDS011;8594;52.052;8.354;2023-06-10T13:09:15;7.47;;;4.93;;
16954;SDS011;8594;52.052;8.354;2023-06-10T13:11:42;5.27;;;4.13;;
16954;SDS011;8594;52.052;8.354;2023-06-10T13:14:10;8.83;;;4.67;;
16954;SDS011;8594;52.052;8.354;2023-06-10T13:16:37;7.70;;;4.47;;
16954;SDS011;8594;52.052;8.354;2023-06-10T13:19:06;10.10;;;4.80;;
16954;SDS011;8594;52.052;8.354;2023-06-10T13:21:33;11.70;;;5.30;;
16954;SDS011;8594;52.052;8.354;2023-06-10T13:24:00;9.70;;;4.77;;
16954;SDS011;8594;52.052;8.354;2023-06-10T13:26:27;8.77;;;4.77;;
16954;SDS011;8594;52.052;8.354;2023-06-10T13:28:54;8.30;;;5.10;;
16954;SDS011;8594;52.052;8.354;2023-06-10T13:31:21;15.03;;;5.80;;
16954;SDS011;8594;52.052;8.354;2023-06-10T13:33:48;6.93;;;4.70;;
16954;SDS011;8594;52.052;8.354;2023-06-10T13:36:16;7.37;;;4.63;;
16954;SDS011;8594;52.052;8.354;2023-06-10T13:38:42;10.50;;;5.37;;
16954;SDS011;8594;52.052;8.354;2023-06-10T13:41:10;7.80;;;4.90;;
16954;SDS011;8594;52.052;8.354;2023-06-10T13:43:37;9.60;;;5.17;;
16954;SDS011;8594;52.052;8.354;2023-06-10T13:46:04;7.90;;;4.73;;
16954;SDS011;8594;52.052;8.354;2023-06-10T13:48:31;6.87;;;4.70;;
16954;SDS011;8594;52.052;8.354;2023-06-10T13:50:58;7.50;;;4.57;;
16954;SDS011;8594;52.052;8.354;2023-06-10T13:53:26;8.07;;;4.30;;
16954;SDS011;8594;52.052;8.354;2023-06-10T13:55:53;9.10;;;5.13;;
16954;SDS011;8594;52.052;8.354;2023-06-10T13:58:20;8.10;;;4.30;;
16954;SDS011;8594;52.052;8.354;2023-06-10T14:00:47;9.53;;;4.83;;
16954;SDS011;8594;52.052;8.354;2023-06-10T14:03:14;11.17;;;4.70;;
16954;SDS011;8594;52.052;8.354;2023-06-10T14:05:40;7.23;;;4.90;;
16954;SDS011;8594;52.052;8.354;2023-06-10T14:08:07;9.40;;;4.73;;
16954;SDS011;8594;52.052;8.354;2023-06-10T14:10:36;8.77;;;4.87;;
16954;SDS011;8594;52.052;8.354;2023-06-10T14:13:02;10.90;;;5.30;;
16954;SDS011;8594;52.052;8.354;2023-06-10T14:15:30;9.77;;;5.07;;
16954;SDS011;8594;52.052;8.354;2023-06-10T14:17:57;7.60;;;5.23;;
16954;SDS011;8594;52.052;8.354;2023-06-10T14:20:24;7.77;;;4.83;;
16954;SDS011;8594;52.052;8.354;2023-06-10T14:22:51;9.20;;;5.27;;
16954;SDS011;8594;52.052;8.354;2023-06-10T14:25:18;10.00;;;5.47;;
16954;SDS011;8594;52.052;8.354;2023-06-10T14:27:46;8.77;;;5.20;;
16954;SDS011;8594;52.052;8.354;2023-06-10T14:30:13;6.93;;;4.83;;
16954;SDS011;8594;52.052;8.354;2023-06-10T14:32:40;8.07;;;5.43;;
16954;SDS011;8594;52.052;8.354;2023-06-10T14:35:07;7.43;;;5.10;;
16954;SDS011;8594;52.052;8.354;2023-06-10T14:37:34;8.67;;;5.67;;
16954;SDS011;8594;52.052;8.354;2023-06-10T14:40:03;8.90;;;5.57;;
16954;SDS011;8594;52.052;8.354;2023-06-10T14:42:31;10.13;;;5.33;;
16954;SDS011;8594;52.052;8.354;2023-06-10T14:44:59;8.60;;;5.40;;
16954;SDS011;8594;52.052;8.354;2023-06-10T14:47:26;11.00;;;5.57;;
16954;SDS011;8594;52.052;8.354;2023-06-10T14:49:53;11.60;;;5.60;;
16954;SDS011;8594;52.052;8.354;2023-06-10T14:52:20;10.30;;;6.03;;
16954;SDS011;8594;52.052;8.354;2023-06-10T14:54:47;6.30;;;5.40;;
16954;SDS011;8594;52.052;8.354;2023-06-10T14:57:13;9.33;;;5.80;;
16954;SDS011;8594;52.052;8.354;2023-06-10T14:59:40;10.83;;;6.50;;
16954;SDS011;8594;52.052;8.354;2023-06-10T15:02:09;8.97;;;5.50;;